createdAt,value
2022-11-05T00:07:36.683Z,13.60
2022-11-05T00:17:46.593Z,13.70
2022-11-05T00:27:51.435Z,13.20
2022-11-05T00:37:56.478Z,13.10
2022-11-05T00:48:17.643Z,13.20
2022-11-05T00:58:25.317Z,13.10
2022-11-05T01:08:29.486Z,13.00
2022-11-05T01:18:34.564Z,12.70
2022-11-05T01:28:38.198Z,12.80
2022-11-05T01:38:43.316Z,12.70
2022-11-05T01:48:48.140Z,12.80
2022-11-05T01:59:00.970Z,12.60
2022-11-05T02:09:08.684Z,13.10
2022-11-05T02:19:38.193Z,13.50
2022-11-05T02:30:13.165Z,13.10
2022-11-05T02:40:28.694Z,13.50
2022-11-05T02:50:36.730Z,13.00
2022-11-05T03:00:49.796Z,12.90
2022-11-05T03:11:00.611Z,12.90
2022-11-05T03:21:10.428Z,12.80
2022-11-05T03:31:16.221Z,12.60
2022-11-05T03:41:24.205Z,12.70
2022-11-05T03:51:33.632Z,13.00
2022-11-05T04:01:40.051Z,12.90
2022-11-05T04:12:01.222Z,12.70
2022-11-05T04:22:24.048Z,12.60
2022-11-05T04:32:30.501Z,12.40
2022-11-05T04:42:35.425Z,12.40
2022-11-05T04:52:41.247Z,12.30
2022-11-05T05:02:46.596Z,12.50
2022-11-05T05:12:50.154Z,13.10
2022-11-05T05:22:56.178Z,12.90
2022-11-05T05:33:03.992Z,12.70
2022-11-05T05:43:09.219Z,12.60
2022-11-05T05:53:15.788Z,12.60
2022-11-05T06:03:21.109Z,12.70
2022-11-05T06:13:24.614Z,12.80
2022-11-05T06:23:31.607Z,12.70
2022-11-05T06:33:35.314Z,12.80
2022-11-05T06:43:40.403Z,13.00
2022-11-05T06:53:44.032Z,12.70
2022-11-05T07:03:49.917Z,13.10
2022-11-05T07:13:53.555Z,13.30
2022-11-05T07:23:58.491Z,13.20
2022-11-05T07:34:02.213Z,13.30
2022-11-05T07:44:07.292Z,13.20
2022-11-05T07:54:11.182Z,13.60
2022-11-05T08:04:16.261Z,14.00
2022-11-05T08:14:19.873Z,14.40
2022-11-05T08:24:24.954Z,14.50
2022-11-05T08:34:28.620Z,14.70
2022-11-05T08:44:33.836Z,15.10
2022-11-05T08:54:37.728Z,15.70
2022-11-05T09:04:42.819Z,16.10
2022-11-05T09:14:46.668Z,16.40
2022-11-05T09:24:51.604Z,16.90
2022-11-05T09:34:55.298Z,17.60
2022-11-05T09:45:03.128Z,17.60
2022-11-05T09:55:16.212Z,17.50
2022-11-05T10:05:23.413Z,17.90
2022-11-05T10:15:32.152Z,18.40
2022-11-05T10:25:40.381Z,18.70
2022-11-05T10:35:50.679Z,19.30
2022-11-05T10:46:08.744Z,20.00
2022-11-05T10:56:30.625Z,20.90
2022-11-05T11:06:39.603Z,21.10
2022-11-05T11:16:44.500Z,20.90
2022-11-05T11:26:49.593Z,20.70
2022-11-05T11:36:56.972Z,21.80
2022-11-05T11:47:09.116Z,21.10
2022-11-05T11:57:23.592Z,21.30
2022-11-05T12:07:43.732Z,21.30
2022-11-05T12:17:53.978Z,21.60
2022-11-05T12:28:18.792Z,21.80
2022-11-05T12:38:33.914Z,20.80
2022-11-05T12:49:04.883Z,20.60
2022-11-05T12:59:20.696Z,20.60
2022-11-05T13:09:32.770Z,19.90
2022-11-05T13:19:42.784Z,20.10
2022-11-05T13:29:52.616Z,20.00
2022-11-05T13:39:59.805Z,20.40
2022-11-05T13:51:03.240Z,20.80
2022-11-05T14:01:15.771Z,21.10
2022-11-05T14:11:24.172Z,23.30
2022-11-05T14:21:35.153Z,23.70
2022-11-05T14:32:08.246Z,24.50
2022-11-05T14:42:19.880Z,24.70
2022-11-05T14:52:23.499Z,25.40
2022-11-05T15:02:34.019Z,24.50
2022-11-05T15:12:44.468Z,23.10
2022-11-05T15:22:52.089Z,20.70
2022-11-05T15:32:55.844Z,19.70
2022-11-05T15:43:20.980Z,19.80
2022-11-05T15:54:16.057Z,20.00
2022-11-05T16:04:22.836Z,19.20
2022-11-05T16:14:36.621Z,18.80
2022-11-05T16:24:44.000Z,17.90
2022-11-05T16:34:49.791Z,17.50
2022-11-05T16:44:56.204Z,16.60
2022-11-05T16:54:59.803Z,16.00
2022-11-05T17:05:04.854Z,15.60
2022-11-05T17:15:21.364Z,15.40
2022-11-05T17:25:27.604Z,15.00
2022-11-05T17:35:31.181Z,14.70
2022-11-05T17:45:41.804Z,14.50
2022-11-05T17:55:46.612Z,14.30
2022-11-05T18:05:51.610Z,14.00
2022-11-05T18:15:55.843Z,14.00
2022-11-05T18:26:01.188Z,13.80
2022-11-05T18:36:04.910Z,13.80
2022-11-05T18:46:23.774Z,13.80
2022-11-05T18:56:34.204Z,13.70
2022-11-05T19:06:39.929Z,13.60
2022-11-05T19:16:43.809Z,13.50
2022-11-05T19:26:49.053Z,13.60
2022-11-05T19:36:52.857Z,13.40
2022-11-05T19:46:57.813Z,13.20
2022-11-05T19:57:02.066Z,13.20
2022-11-05T20:07:07.268Z,13.20
2022-11-05T20:17:10.958Z,13.20
2022-11-05T20:27:16.297Z,13.10
2022-11-05T20:37:19.985Z,13.00
2022-11-05T20:47:24.940Z,12.90
2022-11-05T20:57:28.519Z,13.10
2022-11-05T21:07:33.611Z,13.00
2022-11-05T21:17:37.894Z,12.90
2022-11-05T21:27:43.853Z,13.30
2022-11-05T21:37:48.004Z,13.30
2022-11-05T21:48:05.159Z,13.40
2022-11-05T21:58:34.897Z,13.10
2022-11-05T22:08:40.402Z,13.00
2022-11-05T22:18:44.546Z,13.10
2022-11-05T22:28:54.589Z,12.90
2022-11-05T22:39:05.875Z,12.90
2022-11-05T22:49:28.495Z,12.60
2022-11-05T22:59:32.043Z,13.00
2022-11-05T23:10:05.093Z,12.80
2022-11-05T23:20:44.870Z,13.30
2022-11-05T23:41:47.023Z,13.50
2022-11-05T23:51:52.119Z,13.30
